sensor_id;sensor_type;location;lat;lon;timestamp;P1;durP1;ratioP1;P2;durP2;ratioP2
72065;SDS011;59939;52.516;13.420;2022-12-07T00:01:04;23.53;;;17.67;;
72065;SDS011;59939;52.516;13.420;2022-12-07T00:04:10;23.70;;;17.43;;
72065;SDS011;59939;52.516;13.420;2022-12-07T00:07:23;16.83;;;14.40;;
72065;SDS011;59939;52.516;13.420;2022-12-07T00:10:32;22.87;;;15.67;;
72065;SDS011;59939;52.516;13.420;2022-12-07T00:13:40;25.37;;;16.23;;
72065;SDS011;59939;52.516;13.420;2022-12-07T00:16:44;18.63;;;13.20;;
72065;SDS011;59939;52.516;13.420;2022-12-07T00:19:48;19.33;;;13.70;;
72065;SDS011;59939;52.516;13.420;2022-12-07T00:22:52;20.53;;;12.63;;
72065;SDS011;59939;52.516;13.420;2022-12-07T00:25:55;16.60;;;12.47;;
72065;SDS011;59939;52.516;13.420;2022-12-07T00:29:06;16.27;;;10.87;;
72065;SDS011;59939;52.516;13.420;2022-12-07T00:32:10;14.67;;;9.77;;
72065;SDS011;59939;52.516;13.420;2022-12-07T00:35:14;16.73;;;10.87;;
72065;SDS011;59939;52.516;13.420;2022-12-07T00:38:19;15.20;;;9.17;;
72065;SDS011;59939;52.516;13.420;2022-12-07T00:41:25;19.37;;;10.47;;
72065;SDS011;59939;52.516;13.420;2022-12-07T00:44:29;15.53;;;7.63;;
72065;SDS011;59939;52.516;13.420;2022-12-07T00:47:34;18.73;;;9.30;;
72065;SDS011;59939;52.516;13.420;2022-12-07T00:50:40;15.63;;;7.77;;
72065;SDS011;59939;52.516;13.420;2022-12-07T00:53:44;14.73;;;6.27;;
72065;SDS011;59939;52.516;13.420;2022-12-07T00:56:50;16.33;;;7.10;;
72065;SDS011;59939;52.516;13.420;2022-12-07T00:59:53;13.87;;;5.27;;
72065;SDS011;59939;52.516;13.420;2022-12-07T01:06:44;11.50;;;5.47;;
72065;SDS011;59939;52.516;13.420;2022-12-07T01:09:51;10.97;;;4.00;;
72065;SDS011;59939;52.516;13.420;2022-12-07T01:12:59;16.57;;;7.07;;
72065;SDS011;59939;52.516;13.420;2022-12-07T01:16:03;12.87;;;5.53;;
72065;SDS011;59939;52.516;13.420;2022-12-07T01:19:08;12.60;;;4.50;;
72065;SDS011;59939;52.516;13.420;2022-12-07T01:22:11;12.97;;;4.73;;
72065;SDS011;59939;52.516;13.420;2022-12-07T01:25:20;11.47;;;4.10;;
72065;SDS011;59939;52.516;13.420;2022-12-07T01:28:26;10.50;;;4.17;;
72065;SDS011;59939;52.516;13.420;2022-12-07T01:31:30;9.77;;;3.53;;
72065;SDS011;59939;52.516;13.420;2022-12-07T01:34:34;17.17;;;6.50;;
72065;SDS011;59939;52.516;13.420;2022-12-07T01:37:38;16.30;;;5.97;;
72065;SDS011;59939;52.516;13.420;2022-12-07T01:40:42;7.27;;;2.77;;
72065;SDS011;59939;52.516;13.420;2022-12-07T01:47:13;13.43;;;5.90;;
72065;SDS011;59939;52.516;13.420;2022-12-07T01:50:17;8.83;;;3.60;;
72065;SDS011;59939;52.516;13.420;2022-12-07T01:53:21;14.20;;;6.00;;
72065;SDS011;59939;52.516;13.420;2022-12-07T01:56:28;14.00;;;4.53;;
72065;SDS011;59939;52.516;13.420;2022-12-07T01:59:33;8.17;;;3.30;;
72065;SDS011;59939;52.516;13.420;2022-12-07T02:02:38;7.30;;;3.03;;
72065;SDS011;59939;52.516;13.420;2022-12-07T02:05:42;8.87;;;3.10;;
72065;SDS011;59939;52.516;13.420;2022-12-07T02:08:49;9.83;;;3.33;;
72065;SDS011;59939;52.516;13.420;2022-12-07T02:11:53;7.93;;;3.40;;
72065;SDS011;59939;52.516;13.420;2022-12-07T02:14:59;10.17;;;3.63;;
72065;SDS011;59939;52.516;13.420;2022-12-07T02:18:12;7.77;;;3.17;;
72065;SDS011;59939;52.516;13.420;2022-12-07T02:21:29;14.90;;;4.77;;
72065;SDS011;59939;52.516;13.420;2022-12-07T02:25:24;9.37;;;3.30;;
72065;SDS011;59939;52.516;13.420;2022-12-07T02:28:19;14.50;;;3.93;;
72065;SDS011;59939;52.516;13.420;2022-12-07T02:31:27;11.33;;;4.17;;
72065;SDS011;59939;52.516;13.420;2022-12-07T02:34:34;14.60;;;4.77;;
72065;SDS011;59939;52.516;13.420;2022-12-07T02:37:44;13.43;;;4.40;;
72065;SDS011;59939;52.516;13.420;2022-12-07T02:41:06;16.00;;;5.43;;
72065;SDS011;59939;52.516;13.420;2022-12-07T02:44:12;9.47;;;3.77;;
72065;SDS011;59939;52.516;13.420;2022-12-07T02:47:17;17.30;;;6.73;;
72065;SDS011;59939;52.516;13.420;2022-12-07T02:50:22;13.60;;;5.23;;
72065;SDS011;59939;52.516;13.420;2022-12-07T02:56:46;9.50;;;3.70;;
72065;SDS011;59939;52.516;13.420;2022-12-07T03:00:03;16.93;;;6.30;;
72065;SDS011;59939;52.516;13.420;2022-12-07T03:03:10;14.57;;;5.40;;
72065;SDS011;59939;52.516;13.420;2022-12-07T03:06:22;15.53;;;5.60;;
72065;SDS011;59939;52.516;13.420;2022-12-07T03:12:57;15.30;;;4.90;;
72065;SDS011;59939;52.516;13.420;2022-12-07T03:19:29;10.97;;;3.57;;
72065;SDS011;59939;52.516;13.420;2022-12-07T03:22:35;17.00;;;7.60;;
72065;SDS011;59939;52.516;13.420;2022-12-07T03:25:40;16.20;;;6.70;;
72065;SDS011;59939;52.516;13.420;2022-12-07T03:28:52;16.50;;;5.73;;
72065;SDS011;59939;52.516;13.420;2022-12-07T03:35:43;16.80;;;6.70;;
72065;SDS011;59939;52.516;13.420;2022-12-07T03:38:57;21.87;;;8.50;;
72065;SDS011;59939;52.516;13.420;2022-12-07T03:42:05;13.07;;;5.70;;
72065;SDS011;59939;52.516;13.420;2022-12-07T03:45:12;13.20;;;5.63;;
72065;SDS011;59939;52.516;13.420;2022-12-07T03:51:33;13.33;;;5.17;;
72065;SDS011;59939;52.516;13.420;2022-12-07T03:54:55;19.33;;;7.30;;
72065;SDS011;59939;52.516;13.420;2022-12-07T03:58:07;13.23;;;4.93;;
72065;SDS011;59939;52.516;13.420;2022-12-07T04:01:15;16.50;;;6.50;;
72065;SDS011;59939;52.516;13.420;2022-12-07T04:04:25;22.43;;;8.97;;
72065;SDS011;59939;52.516;13.420;2022-12-07T04:07:29;17.27;;;7.77;;
72065;SDS011;59939;52.516;13.420;2022-12-07T04:10:32;12.13;;;4.80;;
72065;SDS011;59939;52.516;13.420;2022-12-07T04:13:44;17.77;;;7.27;;
72065;SDS011;59939;52.516;13.420;2022-12-07T04:17:10;23.40;;;9.37;;
72065;SDS011;59939;52.516;13.420;2022-12-07T04:20:14;22.17;;;8.97;;
72065;SDS011;59939;52.516;13.420;2022-12-07T04:23:24;20.23;;;8.40;;
72065;SDS011;59939;52.516;13.420;2022-12-07T04:26:28;26.50;;;10.57;;
72065;SDS011;59939;52.516;13.420;2022-12-07T04:29:31;21.17;;;8.70;;
72065;SDS011;59939;52.516;13.420;2022-12-07T04:32:35;24.70;;;8.30;;
72065;SDS011;59939;52.516;13.420;2022-12-07T04:35:39;18.60;;;8.33;;
72065;SDS011;59939;52.516;13.420;2022-12-07T04:38:42;28.30;;;11.60;;
72065;SDS011;59939;52.516;13.420;2022-12-07T04:41:48;26.60;;;10.80;;
72065;SDS011;59939;52.516;13.420;2022-12-07T04:44:52;26.57;;;11.33;;
72065;SDS011;59939;52.516;13.420;2022-12-07T04:47:56;21.97;;;10.10;;
72065;SDS011;59939;52.516;13.420;2022-12-07T04:51:03;26.47;;;10.93;;
72065;SDS011;59939;52.516;13.420;2022-12-07T04:54:07;24.10;;;9.97;;
72065;SDS011;59939;52.516;13.420;2022-12-07T04:57:11;24.80;;;10.63;;
72065;SDS011;59939;52.516;13.420;2022-12-07T05:00:14;30.90;;;12.83;;
72065;SDS011;59939;52.516;13.420;2022-12-07T05:03:20;26.70;;;11.40;;
72065;SDS011;59939;52.516;13.420;2022-12-07T05:06:24;39.17;;;16.97;;
72065;SDS011;59939;52.516;13.420;2022-12-07T05:09:30;33.43;;;15.53;;
72065;SDS011;59939;52.516;13.420;2022-12-07T05:12:35;27.23;;;13.30;;
72065;SDS011;59939;52.516;13.420;2022-12-07T05:15:38;24.57;;;12.47;;
72065;SDS011;59939;52.516;13.420;2022-12-07T05:18:42;32.50;;;15.20;;
72065;SDS011;59939;52.516;13.420;2022-12-07T05:21:46;37.80;;;15.27;;
72065;SDS011;59939;52.516;13.420;2022-12-07T05:24:52;31.73;;;14.33;;
72065;SDS011;59939;52.516;13.420;2022-12-07T05:27:56;36.27;;;15.10;;
72065;SDS011;59939;52.516;13.420;2022-12-07T05:31:00;41.17;;;15.27;;
72065;SDS011;59939;52.516;13.420;2022-12-07T05:34:03;35.43;;;13.60;;
72065;SDS011;59939;52.516;13.420;2022-12-07T05:37:07;44.50;;;17.83;;
72065;SDS011;59939;52.516;13.420;2022-12-07T05:40:11;39.97;;;17.57;;
72065;SDS011;59939;52.516;13.420;2022-12-07T05:43:15;38.17;;;15.90;;
72065;SDS011;59939;52.516;13.420;2022-12-07T05:46:19;45.77;;;17.77;;
72065;SDS011;59939;52.516;13.420;2022-12-07T05:49:23;54.40;;;17.40;;
72065;SDS011;59939;52.516;13.420;2022-12-07T05:52:27;36.03;;;14.80;;
72065;SDS011;59939;52.516;13.420;2022-12-07T05:55:30;30.17;;;13.60;;
72065;SDS011;59939;52.516;13.420;2022-12-07T05:58:34;48.43;;;18.73;;
72065;SDS011;59939;52.516;13.420;2022-12-07T06:02:04;34.70;;;15.63;;
72065;SDS011;59939;52.516;13.420;2022-12-07T06:05:08;39.40;;;15.87;;
72065;SDS011;59939;52.516;13.420;2022-12-07T06:08:15;44.07;;;20.27;;
72065;SDS011;59939;52.516;13.420;2022-12-07T06:11:26;37.13;;;16.73;;
72065;SDS011;59939;52.516;13.420;2022-12-07T06:14:48;40.23;;;18.07;;
72065;SDS011;59939;52.516;13.420;2022-12-07T06:17:53;27.33;;;13.70;;
72065;SDS011;59939;52.516;13.420;2022-12-07T06:20:57;42.83;;;18.23;;
72065;SDS011;59939;52.516;13.420;2022-12-07T06:24:01;44.40;;;19.20;;
72065;SDS011;59939;52.516;13.420;2022-12-07T06:27:05;46.93;;;18.73;;
72065;SDS011;59939;52.516;13.420;2022-12-07T06:30:09;35.97;;;14.97;;
72065;SDS011;59939;52.516;13.420;2022-12-07T06:33:13;30.73;;;14.40;;
72065;SDS011;59939;52.516;13.420;2022-12-07T06:36:16;38.57;;;15.47;;
72065;SDS011;59939;52.516;13.420;2022-12-07T06:39:23;26.43;;;12.17;;
72065;SDS011;59939;52.516;13.420;2022-12-07T06:42:27;32.27;;;14.80;;
72065;SDS011;59939;52.516;13.420;2022-12-07T06:45:34;34.03;;;16.20;;
72065;SDS011;59939;52.516;13.420;2022-12-07T06:48:41;35.80;;;17.43;;
72065;SDS011;59939;52.516;13.420;2022-12-07T06:51:49;49.50;;;20.00;;
72065;SDS011;59939;52.516;13.420;2022-12-07T06:54:52;41.73;;;18.77;;
72065;SDS011;59939;52.516;13.420;2022-12-07T06:57:56;26.63;;;12.83;;
72065;SDS011;59939;52.516;13.420;2022-12-07T07:00:59;28.43;;;12.23;;
72065;SDS011;59939;52.516;13.420;2022-12-07T07:04:04;29.03;;;13.37;;
72065;SDS011;59939;52.516;13.420;2022-12-07T07:07:08;30.47;;;13.30;;
72065;SDS011;59939;52.516;13.420;2022-12-07T07:10:11;26.53;;;13.07;;
72065;SDS011;59939;52.516;13.420;2022-12-07T07:13:15;31.67;;;15.73;;
72065;SDS011;59939;52.516;13.420;2022-12-07T07:16:19;29.23;;;13.83;;
72065;SDS011;59939;52.516;13.420;2022-12-07T07:19:23;32.20;;;14.97;;
72065;SDS011;59939;52.516;13.420;2022-12-07T07:22:26;31.67;;;16.60;;
72065;SDS011;59939;52.516;13.420;2022-12-07T07:25:30;29.97;;;15.30;;
72065;SDS011;59939;52.516;13.420;2022-12-07T07:28:34;26.20;;;12.07;;
72065;SDS011;59939;52.516;13.420;2022-12-07T07:31:38;31.57;;;14.27;;
72065;SDS011;59939;52.516;13.420;2022-12-07T07:34:45;30.13;;;13.33;;
72065;SDS011;59939;52.516;13.420;2022-12-07T07:37:49;26.07;;;12.53;;
72065;SDS011;59939;52.516;13.420;2022-12-07T07:40:52;23.53;;;11.93;;
72065;SDS011;59939;52.516;13.420;2022-12-07T07:43:56;22.80;;;11.43;;
72065;SDS011;59939;52.516;13.420;2022-12-07T07:47:00;21.27;;;11.63;;
72065;SDS011;59939;52.516;13.420;2022-12-07T07:50:04;28.20;;;12.47;;
72065;SDS011;59939;52.516;13.420;2022-12-07T07:53:10;28.57;;;13.43;;
72065;SDS011;59939;52.516;13.420;2022-12-07T07:56:14;25.97;;;11.23;;
72065;SDS011;59939;52.516;13.420;2022-12-07T07:59:17;21.27;;;10.53;;
72065;SDS011;59939;52.516;13.420;2022-12-07T08:02:22;21.83;;;10.13;;
72065;SDS011;59939;52.516;13.420;2022-12-07T08:05:36;17.67;;;9.70;;
72065;SDS011;59939;52.516;13.420;2022-12-07T08:08:40;21.93;;;9.77;;
72065;SDS011;59939;52.516;13.420;2022-12-07T08:11:44;20.27;;;11.00;;
72065;SDS011;59939;52.516;13.420;2022-12-07T08:14:51;20.17;;;8.63;;
72065;SDS011;59939;52.516;13.420;2022-12-07T08:17:55;20.53;;;8.67;;
72065;SDS011;59939;52.516;13.420;2022-12-07T08:20:59;17.43;;;8.63;;
72065;SDS011;59939;52.516;13.420;2022-12-07T08:24:04;19.93;;;7.43;;
72065;SDS011;59939;52.516;13.420;2022-12-07T08:27:08;20.17;;;9.43;;
72065;SDS011;59939;52.516;13.420;2022-12-07T08:30:12;17.10;;;8.77;;
72065;SDS011;59939;52.516;13.420;2022-12-07T08:33:15;19.47;;;9.37;;
72065;SDS011;59939;52.516;13.420;2022-12-07T08:36:19;14.60;;;7.30;;
72065;SDS011;59939;52.516;13.420;2022-12-07T08:39:23;17.83;;;7.57;;
72065;SDS011;59939;52.516;13.420;2022-12-07T08:42:33;10.77;;;5.07;;
72065;SDS011;59939;52.516;13.420;2022-12-07T08:45:43;12.40;;;4.63;;
72065;SDS011;59939;52.516;13.420;2022-12-07T08:48:54;11.70;;;4.13;;
72065;SDS011;59939;52.516;13.420;2022-12-07T08:51:59;7.33;;;3.37;;
72065;SDS011;59939;52.516;13.420;2022-12-07T08:55:03;11.70;;;4.37;;
72065;SDS011;59939;52.516;13.420;2022-12-07T08:58:08;8.87;;;3.50;;
72065;SDS011;59939;52.516;13.420;2022-12-07T09:01:12;10.90;;;4.00;;
72065;SDS011;59939;52.516;13.420;2022-12-07T09:04:15;10.10;;;3.87;;
72065;SDS011;59939;52.516;13.420;2022-12-07T09:07:19;7.27;;;2.70;;
72065;SDS011;59939;52.516;13.420;2022-12-07T09:10:23;7.53;;;2.40;;
72065;SDS011;59939;52.516;13.420;2022-12-07T09:13:27;4.77;;;2.07;;
72065;SDS011;59939;52.516;13.420;2022-12-07T09:16:30;8.87;;;2.93;;
72065;SDS011;59939;52.516;13.420;2022-12-07T09:19:34;6.43;;;2.50;;
72065;SDS011;59939;52.516;13.420;2022-12-07T09:22:38;6.57;;;2.57;;
72065;SDS011;59939;52.516;13.420;2022-12-07T09:25:41;6.27;;;2.47;;
72065;SDS011;59939;52.516;13.420;2022-12-07T09:28:45;6.97;;;2.53;;
72065;SDS011;59939;52.516;13.420;2022-12-07T09:31:48;6.50;;;2.00;;
72065;SDS011;59939;52.516;13.420;2022-12-07T09:34:52;7.33;;;2.30;;
72065;SDS011;59939;52.516;13.420;2022-12-07T09:37:56;6.13;;;2.17;;
72065;SDS011;59939;52.516;13.420;2022-12-07T09:41:03;7.13;;;2.90;;
72065;SDS011;59939;52.516;13.420;2022-12-07T09:44:14;3.87;;;1.77;;
72065;SDS011;59939;52.516;13.420;2022-12-07T09:47:20;7.93;;;3.17;;
72065;SDS011;59939;52.516;13.420;2022-12-07T09:50:25;6.53;;;2.70;;
72065;SDS011;59939;52.516;13.420;2022-12-07T09:53:30;6.23;;;2.80;;
72065;SDS011;59939;52.516;13.420;2022-12-07T09:56:36;6.33;;;2.57;;
72065;SDS011;59939;52.516;13.420;2022-12-07T09:59:40;4.60;;;1.93;;
72065;SDS011;59939;52.516;13.420;2022-12-07T10:02:46;6.17;;;1.97;;
72065;SDS011;59939;52.516;13.420;2022-12-07T10:05:51;4.83;;;2.27;;
72065;SDS011;59939;52.516;13.420;2022-12-07T10:08:55;4.27;;;2.40;;
72065;SDS011;59939;52.516;13.420;2022-12-07T10:15:06;10.37;;;2.57;;
72065;SDS011;59939;52.516;13.420;2022-12-07T10:18:24;8.17;;;2.67;;
72065;SDS011;59939;52.516;13.420;2022-12-07T10:21:28;8.73;;;2.93;;
72065;SDS011;59939;52.516;13.420;2022-12-07T10:24:32;6.40;;;2.77;;
72065;SDS011;59939;52.516;13.420;2022-12-07T10:27:36;4.73;;;2.20;;
72065;SDS011;59939;52.516;13.420;2022-12-07T10:30:50;8.70;;;2.77;;
72065;SDS011;59939;52.516;13.420;2022-12-07T10:33:56;7.10;;;2.80;;
72065;SDS011;59939;52.516;13.420;2022-12-07T10:43:28;4.17;;;1.90;;
72065;SDS011;59939;52.516;13.420;2022-12-07T10:46:43;8.00;;;2.80;;
72065;SDS011;59939;52.516;13.420;2022-12-07T10:49:55;6.73;;;2.17;;
72065;SDS011;59939;52.516;13.420;2022-12-07T10:53:12;7.87;;;2.80;;
72065;SDS011;59939;52.516;13.420;2022-12-07T10:56:29;7.47;;;2.53;;
72065;SDS011;59939;52.516;13.420;2022-12-07T10:59:53;10.07;;;2.87;;
72065;SDS011;59939;52.516;13.420;2022-12-07T11:06:20;11.23;;;4.20;;
72065;SDS011;59939;52.516;13.420;2022-12-07T11:13:19;11.50;;;4.23;;
72065;SDS011;59939;52.516;13.420;2022-12-07T11:29:54;10.13;;;4.10;;
72065;SDS011;59939;52.516;13.420;2022-12-07T11:33:04;11.93;;;4.30;;
72065;SDS011;59939;52.516;13.420;2022-12-07T11:36:17;7.73;;;3.67;;
72065;SDS011;59939;52.516;13.420;2022-12-07T11:39:48;18.37;;;4.77;;
72065;SDS011;59939;52.516;13.420;2022-12-07T11:43:09;9.93;;;3.83;;
72065;SDS011;59939;52.516;13.420;2022-12-07T11:46:15;12.00;;;4.77;;
72065;SDS011;59939;52.516;13.420;2022-12-07T11:52:51;13.73;;;4.07;;
72065;SDS011;59939;52.516;13.420;2022-12-07T11:56:12;8.57;;;3.70;;
72065;SDS011;59939;52.516;13.420;2022-12-07T11:59:23;11.90;;;4.37;;
72065;SDS011;59939;52.516;13.420;2022-12-07T12:02:41;9.80;;;2.90;;
72065;SDS011;59939;52.516;13.420;2022-12-07T12:05:47;15.43;;;4.80;;
72065;SDS011;59939;52.516;13.420;2022-12-07T12:08:55;9.57;;;3.93;;
72065;SDS011;59939;52.516;13.420;2022-12-07T12:12:28;13.43;;;4.87;;
72065;SDS011;59939;52.516;13.420;2022-12-07T12:16:07;9.17;;;3.43;;
72065;SDS011;59939;52.516;13.420;2022-12-07T12:19:38;8.37;;;3.57;;
72065;SDS011;59939;52.516;13.420;2022-12-07T12:25:59;12.37;;;4.10;;
72065;SDS011;59939;52.516;13.420;2022-12-07T12:29:05;9.83;;;3.37;;
72065;SDS011;59939;52.516;13.420;2022-12-07T12:39:15;6.17;;;2.10;;
72065;SDS011;59939;52.516;13.420;2022-12-07T12:42:43;5.07;;;1.97;;
72065;SDS011;59939;52.516;13.420;2022-12-07T12:45:45;8.40;;;2.93;;
72065;SDS011;59939;52.516;13.420;2022-12-07T12:48:52;8.43;;;3.00;;
72065;SDS011;59939;52.516;13.420;2022-12-07T12:51:59;6.80;;;2.10;;
72065;SDS011;59939;52.516;13.420;2022-12-07T13:01:40;7.07;;;2.80;;
72065;SDS011;59939;52.516;13.420;2022-12-07T13:08:18;7.33;;;1.87;;
72065;SDS011;59939;52.516;13.420;2022-12-07T13:11:28;9.23;;;2.70;;
72065;SDS011;59939;52.516;13.420;2022-12-07T13:17:59;6.17;;;2.23;;
72065;SDS011;59939;52.516;13.420;2022-12-07T13:24:21;4.37;;;2.23;;
72065;SDS011;59939;52.516;13.420;2022-12-07T13:27:25;6.90;;;2.10;;
72065;SDS011;59939;52.516;13.420;2022-12-07T13:31:12;9.80;;;2.23;;
72065;SDS011;59939;52.516;13.420;2022-12-07T13:37:32;6.00;;;2.30;;
72065;SDS011;59939;52.516;13.420;2022-12-07T13:40:40;6.90;;;2.50;;
72065;SDS011;59939;52.516;13.420;2022-12-07T13:44:01;9.70;;;2.20;;
72065;SDS011;59939;52.516;13.420;2022-12-07T13:47:06;6.23;;;2.40;;
72065;SDS011;59939;52.516;13.420;2022-12-07T13:53:26;7.83;;;2.60;;
72065;SDS011;59939;52.516;13.420;2022-12-07T13:56:35;3.63;;;1.60;;
72065;SDS011;59939;52.516;13.420;2022-12-07T13:59:39;4.23;;;1.40;;
72065;SDS011;59939;52.516;13.420;2022-12-07T14:06:18;13.57;;;2.80;;
72065;SDS011;59939;52.516;13.420;2022-12-07T14:09:23;7.37;;;2.77;;
72065;SDS011;59939;52.516;13.420;2022-12-07T14:12:31;5.50;;;1.50;;
72065;SDS011;59939;52.516;13.420;2022-12-07T14:15:35;8.57;;;2.30;;
72065;SDS011;59939;52.516;13.420;2022-12-07T14:18:40;6.93;;;1.83;;
72065;SDS011;59939;52.516;13.420;2022-12-07T14:21:44;4.40;;;1.97;;
72065;SDS011;59939;52.516;13.420;2022-12-07T14:24:48;7.60;;;2.40;;
72065;SDS011;59939;52.516;13.420;2022-12-07T14:27:56;9.97;;;2.03;;
72065;SDS011;59939;52.516;13.420;2022-12-07T14:31:01;5.77;;;2.20;;
72065;SDS011;59939;52.516;13.420;2022-12-07T14:34:11;6.63;;;2.07;;
72065;SDS011;59939;52.516;13.420;2022-12-07T14:37:14;6.10;;;2.20;;
72065;SDS011;59939;52.516;13.420;2022-12-07T14:40:19;4.93;;;2.57;;
72065;SDS011;59939;52.516;13.420;2022-12-07T14:43:23;11.33;;;2.97;;
72065;SDS011;59939;52.516;13.420;2022-12-07T14:46:27;7.80;;;1.93;;
72065;SDS011;59939;52.516;13.420;2022-12-07T14:49:31;5.90;;;2.00;;
72065;SDS011;59939;52.516;13.420;2022-12-07T14:52:39;9.07;;;3.23;;
72065;SDS011;59939;52.516;13.420;2022-12-07T14:56:04;9.57;;;2.17;;
72065;SDS011;59939;52.516;13.420;2022-12-07T14:59:09;4.63;;;2.10;;
72065;SDS011;59939;52.516;13.420;2022-12-07T15:02:14;9.17;;;2.33;;
72065;SDS011;59939;52.516;13.420;2022-12-07T15:05:18;3.13;;;1.63;;
72065;SDS011;59939;52.516;13.420;2022-12-07T15:08:22;7.60;;;2.00;;
72065;SDS011;59939;52.516;13.420;2022-12-07T15:11:27;12.63;;;2.90;;
72065;SDS011;59939;52.516;13.420;2022-12-07T15:14:30;13.67;;;2.13;;
72065;SDS011;59939;52.516;13.420;2022-12-07T15:17:34;7.63;;;2.40;;
72065;SDS011;59939;52.516;13.420;2022-12-07T15:20:38;5.53;;;1.77;;
72065;SDS011;59939;52.516;13.420;2022-12-07T15:23:42;5.30;;;2.03;;
72065;SDS011;59939;52.516;13.420;2022-12-07T15:26:52;10.53;;;3.23;;
72065;SDS011;59939;52.516;13.420;2022-12-07T15:29:56;5.17;;;1.67;;
72065;SDS011;59939;52.516;13.420;2022-12-07T15:33:00;9.93;;;1.90;;
72065;SDS011;59939;52.516;13.420;2022-12-07T15:36:04;6.47;;;1.83;;
72065;SDS011;59939;52.516;13.420;2022-12-07T15:39:08;10.97;;;1.97;;
72065;SDS011;59939;52.516;13.420;2022-12-07T15:42:17;6.80;;;1.90;;
72065;SDS011;59939;52.516;13.420;2022-12-07T15:45:20;4.03;;;1.63;;
72065;SDS011;59939;52.516;13.420;2022-12-07T15:48:24;4.33;;;1.87;;
72065;SDS011;59939;52.516;13.420;2022-12-07T15:51:30;8.43;;;2.07;;
72065;SDS011;59939;52.516;13.420;2022-12-07T15:54:33;6.97;;;2.30;;
72065;SDS011;59939;52.516;13.420;2022-12-07T15:57:37;9.80;;;2.63;;
72065;SDS011;59939;52.516;13.420;2022-12-07T16:00:41;8.03;;;1.73;;
72065;SDS011;59939;52.516;13.420;2022-12-07T16:03:45;10.10;;;2.20;;
72065;SDS011;59939;52.516;13.420;2022-12-07T16:06:49;9.83;;;2.97;;
72065;SDS011;59939;52.516;13.420;2022-12-07T16:09:54;15.43;;;2.93;;
72065;SDS011;59939;52.516;13.420;2022-12-07T16:12:58;10.50;;;2.20;;
72065;SDS011;59939;52.516;13.420;2022-12-07T16:16:07;7.13;;;2.20;;
72065;SDS011;59939;52.516;13.420;2022-12-07T16:19:11;9.47;;;2.37;;
72065;SDS011;59939;52.516;13.420;2022-12-07T16:22:15;4.87;;;1.63;;
72065;SDS011;59939;52.516;13.420;2022-12-07T16:25:19;7.97;;;2.63;;
72065;SDS011;59939;52.516;13.420;2022-12-07T16:28:22;10.47;;;2.37;;
72065;SDS011;59939;52.516;13.420;2022-12-07T16:31:26;16.27;;;2.83;;
72065;SDS011;59939;52.516;13.420;2022-12-07T16:34:30;7.27;;;2.33;;
72065;SDS011;59939;52.516;13.420;2022-12-07T16:37:34;7.70;;;2.37;;
72065;SDS011;59939;52.516;13.420;2022-12-07T16:40:38;5.00;;;2.17;;
72065;SDS011;59939;52.516;13.420;2022-12-07T16:43:41;6.93;;;2.17;;
72065;SDS011;59939;52.516;13.420;2022-12-07T16:46:45;9.03;;;1.80;;
72065;SDS011;59939;52.516;13.420;2022-12-07T16:49:49;10.67;;;2.73;;
72065;SDS011;59939;52.516;13.420;2022-12-07T16:52:52;6.77;;;2.00;;
72065;SDS011;59939;52.516;13.420;2022-12-07T16:55:56;7.00;;;2.37;;
72065;SDS011;59939;52.516;13.420;2022-12-07T16:59:00;5.03;;;2.10;;
72065;SDS011;59939;52.516;13.420;2022-12-07T17:02:04;7.57;;;2.10;;
72065;SDS011;59939;52.516;13.420;2022-12-07T17:05:10;7.77;;;2.00;;
72065;SDS011;59939;52.516;13.420;2022-12-07T17:08:14;8.07;;;1.83;;
72065;SDS011;59939;52.516;13.420;2022-12-07T17:11:19;10.57;;;2.30;;
72065;SDS011;59939;52.516;13.420;2022-12-07T17:14:24;5.90;;;1.63;;
72065;SDS011;59939;52.516;13.420;2022-12-07T17:17:50;5.83;;;2.03;;
72065;SDS011;59939;52.516;13.420;2022-12-07T17:20:55;10.93;;;2.20;;
72065;SDS011;59939;52.516;13.420;2022-12-07T17:24:02;9.03;;;2.93;;
72065;SDS011;59939;52.516;13.420;2022-12-07T17:27:06;4.07;;;2.00;;
72065;SDS011;59939;52.516;13.420;2022-12-07T17:30:10;7.53;;;2.27;;
72065;SDS011;59939;52.516;13.420;2022-12-07T17:33:14;6.37;;;1.87;;
72065;SDS011;59939;52.516;13.420;2022-12-07T17:36:23;7.17;;;2.17;;
72065;SDS011;59939;52.516;13.420;2022-12-07T17:39:27;5.17;;;2.00;;
72065;SDS011;59939;52.516;13.420;2022-12-07T17:42:32;10.90;;;3.00;;
72065;SDS011;59939;52.516;13.420;2022-12-07T17:45:50;8.07;;;2.77;;
72065;SDS011;59939;52.516;13.420;2022-12-07T17:48:54;6.60;;;2.07;;
72065;SDS011;59939;52.516;13.420;2022-12-07T17:51:57;7.13;;;2.03;;
72065;SDS011;59939;52.516;13.420;2022-12-07T17:55:20;6.83;;;2.20;;
72065;SDS011;59939;52.516;13.420;2022-12-07T17:58:24;11.27;;;3.30;;
72065;SDS011;59939;52.516;13.420;2022-12-07T18:01:28;6.87;;;2.20;;
72065;SDS011;59939;52.516;13.420;2022-12-07T18:04:35;8.33;;;2.10;;
72065;SDS011;59939;52.516;13.420;2022-12-07T18:07:39;13.73;;;2.93;;
72065;SDS011;59939;52.516;13.420;2022-12-07T18:10:43;7.63;;;2.70;;
72065;SDS011;59939;52.516;13.420;2022-12-07T18:13:53;7.20;;;2.70;;
72065;SDS011;59939;52.516;13.420;2022-12-07T18:16:57;6.10;;;2.00;;
72065;SDS011;59939;52.516;13.420;2022-12-07T18:20:04;8.40;;;2.90;;
72065;SDS011;59939;52.516;13.420;2022-12-07T18:23:08;10.57;;;2.77;;
72065;SDS011;59939;52.516;13.420;2022-12-07T18:26:12;8.07;;;2.53;;
72065;SDS011;59939;52.516;13.420;2022-12-07T18:29:23;7.20;;;1.97;;
72065;SDS011;59939;52.516;13.420;2022-12-07T18:32:27;5.23;;;1.97;;
72065;SDS011;59939;52.516;13.420;2022-12-07T18:35:34;8.10;;;3.23;;
72065;SDS011;59939;52.516;13.420;2022-12-07T18:38:40;7.93;;;3.27;;
72065;SDS011;59939;52.516;13.420;2022-12-07T18:41:44;9.67;;;2.90;;
72065;SDS011;59939;52.516;13.420;2022-12-07T18:44:48;7.30;;;2.40;;
72065;SDS011;59939;52.516;13.420;2022-12-07T18:47:51;10.17;;;3.00;;
72065;SDS011;59939;52.516;13.420;2022-12-07T18:51:02;4.97;;;1.80;;
72065;SDS011;59939;52.516;13.420;2022-12-07T18:54:07;13.87;;;2.90;;
72065;SDS011;59939;52.516;13.420;2022-12-07T18:57:11;5.77;;;2.47;;
72065;SDS011;59939;52.516;13.420;2022-12-07T19:00:19;9.17;;;2.83;;
72065;SDS011;59939;52.516;13.420;2022-12-07T19:03:26;6.53;;;2.40;;
72065;SDS011;59939;52.516;13.420;2022-12-07T19:06:33;8.40;;;2.10;;
72065;SDS011;59939;52.516;13.420;2022-12-07T19:09:37;7.47;;;2.80;;
72065;SDS011;59939;52.516;13.420;2022-12-07T19:12:55;5.40;;;2.17;;
72065;SDS011;59939;52.516;13.420;2022-12-07T19:16:05;5.47;;;2.03;;
72065;SDS011;59939;52.516;13.420;2022-12-07T19:19:12;7.40;;;2.90;;
72065;SDS011;59939;52.516;13.420;2022-12-07T19:22:17;6.97;;;2.80;;
72065;SDS011;59939;52.516;13.420;2022-12-07T19:25:21;5.57;;;2.10;;
72065;SDS011;59939;52.516;13.420;2022-12-07T19:28:25;7.03;;;2.40;;
72065;SDS011;59939;52.516;13.420;2022-12-07T19:31:28;6.37;;;2.10;;
72065;SDS011;59939;52.516;13.420;2022-12-07T19:34:32;6.47;;;2.47;;
72065;SDS011;59939;52.516;13.420;2022-12-07T19:37:36;5.33;;;2.03;;
72065;SDS011;59939;52.516;13.420;2022-12-07T19:40:40;7.83;;;2.90;;
72065;SDS011;59939;52.516;13.420;2022-12-07T19:43:46;8.77;;;3.07;;
72065;SDS011;59939;52.516;13.420;2022-12-07T19:47:04;12.33;;;3.67;;
72065;SDS011;59939;52.516;13.420;2022-12-07T19:50:08;8.23;;;2.93;;